Time;durP1;ratioP1;P1;durP2;ratioP2;P2;SDS_P1;SDS_P2;PMS_P1;PMS_P2;Temp;Humidity;BMP_temperature;BMP_pressure;BME280_temperature;BME280_humidity;BME280_pressure;Samples;Min_cycle;Max_cycle;Signal;HPM_P1;HPM_P2
2021/09/27 00:02:24;;;;;;;14.80;12.17;;;15.20;99.90;;;;;;6089172;23;20557;-78
2021/09/27 00:05:08;;;;;;;15.87;13.50;;;15.20;99.90;;;;;;6088733;23;20586;-78
2021/09/27 00:07:44;;;;;;;14.53;13.00;;;15.10;99.90;;;;;;6088402;23;20562;-78
2021/09/27 00:10:19;;;;;;;14.60;12.50;;;15.10;99.90;;;;;;6088074;23;21007;-78
2021/09/27 00:12:55;;;;;;;15.50;13.23;;;15.10;99.90;;;;;;6088779;23;20587;-78
2021/09/27 00:15:31;;;;;;;13.93;11.87;;;15.00;99.90;;;;;;6089448;23;21096;-78
2021/09/27 00:18:08;;;;;;;14.23;12.63;;;15.00;99.90;;;;;;6088305;23;20605;-78
2021/09/27 00:20:49;;;;;;;15.50;13.53;;;15.00;99.90;;;;;;6083582;23;20984;-78
2021/09/27 00:23:27;;;;;;;17.37;13.83;;;15.10;99.90;;;;;;6088577;22;20583;-78
2021/09/27 00:26:10;;;;;;;16.33;12.87;;;15.10;99.90;;;;;;6088681;23;20598;-78
2021/09/27 00:28:46;;;;;;;17.87;13.90;;;15.00;99.90;;;;;;6088637;23;20923;-78
2021/09/27 00:31:35;;;;;;;16.97;13.23;;;15.10;99.90;;;;;;6087490;23;20674;-77
2021/09/27 00:34:19;;;;;;;16.23;13.40;;;15.10;99.90;;;;;;6088674;23;20536;-78
2021/09/27 00:36:53;;;;;;;16.33;13.53;;;15.10;99.90;;;;;;6088426;23;20634;-78
2021/09/27 00:39:31;;;;;;;15.83;13.13;;;15.10;99.90;;;;;;6088235;23;21121;-78
2021/09/27 00:42:14;;;;;;;16.57;14.67;;;15.10;99.90;;;;;;6088724;23;20587;-78
2021/09/27 00:44:48;;;;;;;14.87;12.97;;;15.10;99.90;;;;;;6088903;23;20610;-78
2021/09/27 00:47:36;;;;;;;16.33;13.57;;;15.10;99.90;;;;;;6087970;23;20590;-78
2021/09/27 00:50:27;;;;;;;15.23;13.70;;;15.10;99.90;;;;;;6088998;23;20665;-78
2021/09/27 00:53:05;;;;;;;15.73;13.93;;;15.10;99.90;;;;;;6089917;23;20608;-78
2021/09/27 00:55:39;;;;;;;14.70;13.10;;;15.10;99.90;;;;;;6089929;23;20642;-78
2021/09/27 00:58:24;;;;;;;14.80;12.07;;;15.10;99.90;;;;;;6089239;23;20680;-78
2021/09/27 01:01:00;;;;;;;15.90;14.20;;;15.10;99.90;;;;;;6089260;23;20567;-78
2021/09/27 01:03:50;;;;;;;15.67;14.07;;;15.10;99.90;;;;;;6087320;23;20618;-78
2021/09/27 01:06:46;;;;;;;15.90;13.17;;;14.90;99.90;;;;;;6088315;23;20594;-78
2021/09/27 01:09:39;;;;;;;12.90;11.53;;;15.00;99.90;;;;;;6088430;23;20681;-78
2021/09/27 01:12:50;;;;;;;14.20;12.67;;;15.00;99.90;;;;;;6089643;23;20563;-78
2021/09/27 01:15:46;;;;;;;16.90;14.77;;;15.00;99.90;;;;;;6089694;23;20640;-78
2021/09/27 01:18:43;;;;;;;16.07;13.70;;;15.10;99.90;;;;;;6088844;23;20979;-78
2021/09/27 01:21:48;;;;;;;17.60;14.40;;;15.00;99.90;;;;;;6088689;23;21140;-77
2021/09/27 01:25:06;;;;;;;15.80;13.90;;;15.00;99.90;;;;;;6089634;23;20598;-78
2021/09/27 01:28:20;;;;;;;16.07;12.90;;;15.00;99.90;;;;;;6087339;23;20610;-78
2021/09/27 01:31:42;;;;;;;15.73;13.20;;;15.10;99.90;;;;;;6081816;23;21277;-78
2021/09/27 01:34:37;;;;;;;15.50;13.17;;;15.10;99.90;;;;;;6089101;23;20591;-78
2021/09/27 01:37:31;;;;;;;15.47;13.00;;;15.20;99.90;;;;;;6087416;23;20610;-78
2021/09/27 01:40:26;;;;;;;16.13;12.03;;;15.20;99.90;;;;;;6088370;23;20575;-78
2021/09/27 01:43:18;;;;;;;15.20;12.60;;;15.20;99.90;;;;;;6088149;23;21074;-78
2021/09/27 01:46:11;;;;;;;15.20;12.20;;;15.20;99.90;;;;;;6087984;23;20674;-78
2021/09/27 01:49:02;;;;;;;15.67;13.50;;;15.20;99.90;;;;;;6088005;23;20625;-78
2021/09/27 01:51:57;;;;;;;15.40;12.50;;;15.10;99.90;;;;;;6088099;23;21175;-78
2021/09/27 01:54:47;;;;;;;16.57;12.80;;;15.20;99.90;;;;;;6089304;23;20603;-78
2021/09/27 01:57:39;;;;;;;13.57;12.20;;;15.30;99.90;;;;;;6088792;23;20603;-78
2021/09/27 02:00:33;;;;;;;16.73;12.43;;;15.20;99.90;;;;;;6089245;23;20597;-78
2021/09/27 02:03:26;;;;;;;15.13;13.50;;;15.20;99.90;;;;;;6088347;23;20685;-78
2021/09/27 02:06:18;;;;;;;14.03;12.40;;;15.20;99.90;;;;;;6087971;23;20685;-78
2021/09/27 02:09:10;;;;;;;16.40;13.70;;;15.20;99.90;;;;;;6087847;23;20645;-78
2021/09/27 02:12:01;;;;;;;12.47;11.27;;;15.30;99.90;;;;;;6087826;23;20718;-78
2021/09/27 02:14:55;;;;;;;15.47;12.73;;;15.30;99.90;;;;;;6088176;23;21129;-78
2021/09/27 02:17:45;;;;;;;14.83;12.97;;;15.20;99.90;;;;;;6088864;23;20681;-78
2021/09/27 02:20:38;;;;;;;14.80;12.27;;;15.10;99.90;;;;;;6088071;23;20889;-78
2021/09/27 02:23:22;;;;;;;12.77;11.37;;;15.10;99.90;;;;;;6089423;23;21087;-78
2021/09/27 02:26:08;;;;;;;15.13;13.53;;;15.10;99.90;;;;;;6089187;23;20685;-78
2021/09/27 02:28:45;;;;;;;14.90;12.17;;;15.10;99.90;;;;;;6089144;23;20681;-78
2021/09/27 02:31:36;;;;;;;12.30;11.00;;;15.00;99.90;;;;;;6089474;23;20870;-78
2021/09/27 02:34:24;;;;;;;14.70;11.67;;;15.00;99.90;;;;;;6089693;23;20961;-78
2021/09/27 02:37:01;;;;;;;13.07;11.70;;;15.10;99.90;;;;;;6088800;23;21381;-78
2021/09/27 02:39:44;;;;;;;13.70;12.27;;;15.10;99.90;;;;;;6089386;23;20580;-78
2021/09/27 02:42:27;;;;;;;14.97;12.80;;;15.10;99.90;;;;;;6082495;23;20705;-78
2021/09/27 02:45:10;;;;;;;14.30;12.80;;;15.10;99.90;;;;;;6089497;23;20531;-78
2021/09/27 02:48:10;;;;;;;12.67;11.37;;;15.10;99.90;;;;;;6088345;23;20697;-78
2021/09/27 02:50:46;;;;;;;14.17;12.70;;;15.10;99.90;;;;;;6089132;23;20589;-78
2021/09/27 02:53:24;;;;;;;15.53;12.73;;;15.20;99.90;;;;;;6089176;23;20590;-78
2021/09/27 02:56:13;;;;;;;16.87;13.40;;;15.40;99.90;;;;;;6089719;23;20571;-79
2021/09/27 02:59:04;;;;;;;13.30;10.80;;;15.20;99.90;;;;;;6087072;23;21335;-78
2021/09/27 03:02:02;;;;;;;14.27;11.47;;;15.10;99.90;;;;;;6089339;23;21203;-78
2021/09/27 03:04:50;;;;;;;14.67;11.33;;;15.10;99.90;;;;;;6089498;23;20586;-78
2021/09/27 03:07:58;;;;;;;15.13;12.50;;;15.10;99.90;;;;;;6088729;23;20586;-78
2021/09/27 03:11:00;;;;;;;13.50;11.00;;;15.20;99.90;;;;;;6088014;23;20626;-78
2021/09/27 03:13:48;;;;;;;14.67;11.43;;;15.20;99.90;;;;;;6088277;23;20684;-78
2021/09/27 03:16:50;;;;;;;14.53;11.50;;;15.20;99.90;;;;;;6088287;23;20994;-78
2021/09/27 03:19:48;;;;;;;14.97;12.40;;;15.30;99.90;;;;;;6089113;23;20587;-78
2021/09/27 03:22:40;;;;;;;14.60;12.70;;;15.30;99.90;;;;;;6089034;23;20597;-78
2021/09/27 03:25:40;;;;;;;12.50;10.77;;;15.30;99.90;;;;;;6088863;23;20602;-78
2021/09/27 03:28:36;;;;;;;18.17;13.07;;;15.30;99.90;;;;;;6087050;23;20708;-78
2021/09/27 03:31:32;;;;;;;14.77;12.30;;;15.30;99.90;;;;;;6087918;23;20722;-78
2021/09/27 03:34:14;;;;;;;15.80;12.10;;;15.40;99.90;;;;;;6088829;23;20583;-78
2021/09/27 03:37:29;;;;;;;14.10;11.87;;;15.40;99.90;;;;;;6087680;23;20583;-78
2021/09/27 03:40:23;;;;;;;15.37;12.83;;;15.40;99.90;;;;;;6089400;23;21523;-78
2021/09/27 03:43:13;;;;;;;12.57;10.70;;;15.40;99.90;;;;;;6089395;23;20941;-78
2021/09/27 03:46:02;;;;;;;14.43;12.40;;;15.30;99.90;;;;;;6088649;23;20598;-78
2021/09/27 03:48:58;;;;;;;12.67;11.37;;;15.30;99.90;;;;;;6089108;23;21583;-78
2021/09/27 03:51:49;;;;;;;13.50;11.73;;;15.30;99.90;;;;;;6082208;23;20716;-78
2021/09/27 03:54:36;;;;;;;12.10;11.00;;;15.20;99.90;;;;;;6089007;23;20634;-78
2021/09/27 03:57:32;;;;;;;13.90;12.40;;;15.40;99.90;;;;;;6085890;23;20600;-78
2021/09/27 04:00:13;;;;;;;13.10;11.70;;;15.40;99.90;;;;;;6089296;23;20561;-78
2021/09/27 04:03:07;;;;;;;14.07;11.10;;;15.50;99.90;;;;;;6087611;23;20578;-78
2021/09/27 04:06:01;;;;;;;14.27;11.67;;;15.50;99.90;;;;;;6087656;23;21062;-79
2021/09/27 04:08:43;;;;;;;14.57;11.73;;;15.40;99.90;;;;;;6088919;23;20558;-79
2021/09/27 04:11:37;;;;;;;16.27;12.60;;;15.40;99.90;;;;;;6089112;23;20662;-78
2021/09/27 04:14:31;;;;;;;14.10;12.60;;;15.40;99.90;;;;;;6087718;23;20597;-78
2021/09/27 04:17:32;;;;;;;15.43;12.73;;;15.40;99.90;;;;;;6088334;23;21175;-78
2021/09/27 04:20:16;;;;;;;13.70;11.20;;;15.40;99.90;;;;;;6087546;23;20567;-78
2021/09/27 04:23:09;;;;;;;16.80;12.30;;;15.40;99.90;;;;;;6089301;23;20569;-79
2021/09/27 04:26:02;;;;;;;15.80;11.47;;;15.30;99.90;;;;;;6088682;23;20578;-78
2021/09/27 04:29:10;;;;;;;11.60;10.40;;;15.40;99.90;;;;;;6087795;23;20607;-79
2021/09/27 04:32:08;;;;;;;13.70;12.03;;;15.30;99.90;;;;;;6087749;23;20635;-80
2021/09/27 04:35:03;;;;;;;16.03;11.37;;;15.30;99.90;;;;;;6088335;23;20701;-79
2021/09/27 04:37:38;;;;;;;16.50;12.47;;;15.20;99.90;;;;;;6085874;23;20773;-79
2021/09/27 04:40:16;;;;;;;14.17;11.50;;;15.10;99.90;;;;;;6085840;23;20558;-79
2021/09/27 04:43:19;;;;;;;13.90;11.87;;;15.00;99.90;;;;;;6089238;23;20590;-79
2021/09/27 04:46:06;;;;;;;12.07;10.83;;;14.90;99.90;;;;;;6089396;23;20659;-79
2021/09/27 04:49:05;;;;;;;17.67;12.47;;;14.90;99.90;;;;;;6088565;23;21148;-79
2021/09/27 04:51:55;;;;;;;14.43;12.93;;;14.80;99.90;;;;;;6088600;23;20617;-79
2021/09/27 04:54:57;;;;;;;14.47;11.77;;;14.80;99.90;;;;;;6088481;23;20925;-79
2021/09/27 04:57:45;;;;;;;15.60;12.67;;;14.90;99.90;;;;;;6087897;23;20603;-79
2021/09/27 05:00:35;;;;;;;14.87;12.67;;;14.80;99.90;;;;;;6087978;23;20595;-79
2021/09/27 05:03:40;;;;;;;13.90;12.07;;;14.70;99.90;;;;;;6088152;23;20701;-79
2021/09/27 05:06:42;;;;;;;17.27;12.43;;;14.70;99.90;;;;;;6087849;23;20597;-79
2021/09/27 05:09:29;;;;;;;16.20;12.43;;;14.70;99.90;;;;;;6074279;23;20635;-79
2021/09/27 05:12:51;;;;;;;15.20;13.10;;;14.50;99.90;;;;;;6088387;23;20680;-79
2021/09/27 05:15:52;;;;;;;13.67;12.20;;;14.60;99.90;;;;;;6088131;23;20575;-79
2021/09/27 05:19:02;;;;;;;14.07;12.53;;;14.50;99.90;;;;;;6087523;23;20701;-79
2021/09/27 05:22:21;;;;;;;17.27;11.40;;;14.50;99.90;;;;;;6087983;23;20629;-79
2021/09/27 05:25:29;;;;;;;13.57;11.13;;;14.40;99.90;;;;;;6086413;23;20711;-80
2021/09/27 05:28:45;;;;;;;13.93;11.07;;;14.40;99.90;;;;;;6088295;23;20685;-79
2021/09/27 05:31:47;;;;;;;11.87;10.60;;;14.50;99.90;;;;;;6088934;23;20567;-79
2021/09/27 05:34:34;;;;;;;16.60;12.83;;;14.40;99.90;;;;;;6088629;23;20570;-79
2021/09/27 05:37:28;;;;;;;15.37;12.43;;;14.40;99.90;;;;;;6081748;23;20619;-79
2021/09/27 05:40:29;;;;;;;14.50;11.07;;;14.50;99.90;;;;;;6088764;23;20575;-79
2021/09/27 05:43:33;;;;;;;13.80;11.57;;;14.40;99.90;;;;;;6080121;23;20597;-78
2021/09/27 05:46:35;;;;;;;13.60;10.60;;;14.40;99.90;;;;;;6088625;23;20999;-79
2021/09/27 05:49:19;;;;;;;16.27;11.10;;;14.30;99.90;;;;;;6089052;23;20582;-79
2021/09/27 05:52:03;;;;;;;15.40;12.50;;;14.30;99.90;;;;;;6088196;23;20609;-78
2021/09/27 05:54:43;;;;;;;17.90;12.83;;;14.30;99.90;;;;;;6088206;23;20926;-78
2021/09/27 05:57:31;;;;;;;13.90;12.27;;;14.30;99.90;;;;;;6081696;23;20623;-79
2021/09/27 06:00:23;;;;;;;13.17;11.30;;;14.30;99.90;;;;;;6087731;23;21216;-79
2021/09/27 06:03:36;;;;;;;14.93;12.53;;;14.30;99.90;;;;;;6087783;23;20665;-79
2021/09/27 06:06:26;;;;;;;20.00;11.80;;;14.40;99.90;;;;;;6088663;23;21390;-79
2021/09/27 06:09:24;;;;;;;19.93;12.63;;;14.50;99.90;;;;;;6089932;23;20555;-79
2021/09/27 06:12:07;;;;;;;18.93;11.90;;;14.60;99.90;;;;;;6085391;23;20626;-79
2021/09/27 06:14:55;;;;;;;25.00;14.50;;;14.60;99.90;;;;;;6089357;23;21217;-79
2021/09/27 06:17:52;;;;;;;19.00;12.50;;;14.70;99.90;;;;;;6088620;23;20590;-79
2021/09/27 06:20:53;;;;;;;17.00;11.40;;;14.70;99.90;;;;;;6088255;23;21120;-79
2021/09/27 06:23:59;;;;;;;17.00;10.90;;;14.80;99.90;;;;;;6088164;23;20595;-79
2021/09/27 06:26:47;;;;;;;15.90;11.80;;;14.80;99.90;;;;;;6088428;23;20614;-78
2021/09/27 06:29:41;;;;;;;14.37;11.40;;;14.90;99.90;;;;;;6085807;23;20594;-78
2021/09/27 06:32:30;;;;;;;12.43;11.13;;;15.00;99.90;;;;;;6089769;23;20584;-80
2021/09/27 06:35:20;;;;;;;16.07;10.53;;;15.10;99.90;;;;;;6088075;23;21191;-80
2021/09/27 06:38:06;;;;;;;11.63;9.80;;;15.10;99.90;;;;;;6088600;23;20597;-80
2021/09/27 06:40:51;;;;;;;13.60;10.70;;;15.10;99.90;;;;;;6089023;23;20685;-78
2021/09/27 06:43:38;;;;;;;11.73;10.53;;;15.20;99.90;;;;;;6088521;23;21220;-79
2021/09/27 06:46:20;;;;;;;15.80;10.80;;;15.30;99.90;;;;;;6087489;23;20616;-78
2021/09/27 06:49:01;;;;;;;14.53;10.23;;;15.40;99.90;;;;;;6089028;23;20653;-78
2021/09/27 06:51:42;;;;;;;16.20;10.90;;;15.40;99.90;;;;;;6089281;23;20607;-78
2021/09/27 06:54:21;;;;;;;10.73;9.63;;;15.50;99.90;;;;;;6088697;23;20547;-78
2021/09/27 06:56:59;;;;;;;12.80;11.37;;;15.60;99.90;;;;;;6082745;23;20614;-78
2021/09/27 06:59:31;;;;;;;11.00;9.90;;;15.70;99.90;;;;;;6089420;23;20573;-78
2021/09/27 07:02:06;;;;;;;13.13;11.33;;;15.70;99.90;;;;;;6089560;23;20906;-78
2021/09/27 07:04:36;;;;;;;14.33;10.40;;;15.90;99.90;;;;;;6089099;23;20596;-78
2021/09/27 07:07:12;;;;;;;11.10;10.10;;;16.00;99.90;;;;;;6088802;23;20586;-78
2021/09/27 07:09:51;;;;;;;13.30;10.67;;;16.00;99.90;;;;;;6089908;23;20672;-78
2021/09/27 07:12:37;;;;;;;12.90;10.97;;;16.20;99.90;;;;;;6088133;23;20635;-78
2021/09/27 07:15:17;;;;;;;14.33;11.30;;;16.40;99.90;;;;;;6087616;23;20637;-77
2021/09/27 07:17:49;;;;;;;14.47;10.87;;;16.50;99.90;;;;;;6089240;23;20600;-79
2021/09/27 07:20:31;;;;;;;11.90;9.73;;;16.50;99.90;;;;;;6084042;23;20624;-79
2021/09/27 07:23:18;;;;;;;11.73;9.10;;;16.40;99.90;;;;;;6086090;23;20671;-78
2021/09/27 07:26:03;;;;;;;9.97;9.07;;;16.50;99.90;;;;;;6090010;23;20632;-78
2021/09/27 07:28:42;;;;;;;10.70;9.80;;;16.40;99.90;;;;;;6087426;23;20671;-79
2021/09/27 07:31:30;;;;;;;11.27;9.97;;;16.50;99.90;;;;;;6089516;23;20635;-80
2021/09/27 07:34:08;;;;;;;10.80;9.70;;;16.40;99.90;;;;;;6088393;23;20580;-81
2021/09/27 07:36:47;;;;;;;9.50;8.20;;;16.50;99.90;;;;;;6088991;23;20565;-79
2021/09/27 07:39:35;;;;;;;16.00;10.80;;;16.50;99.90;;;;;;6084065;23;20668;-80
2021/09/27 07:42:14;;;;;;;9.17;7.60;;;16.70;99.90;;;;;;6088160;23;20564;-80
2021/09/27 07:44:50;;;;;;;10.27;9.20;;;16.80;99.90;;;;;;6089572;23;21320;-80
2021/09/27 07:47:38;;;;;;;9.87;8.70;;;16.80;99.90;;;;;;6087726;23;21448;-79
2021/09/27 07:50:13;;;;;;;11.10;10.00;;;16.90;99.90;;;;;;6088674;23;20562;-79
2021/09/27 07:53:10;;;;;;;10.40;9.40;;;16.90;99.90;;;;;;6086312;23;20598;-79
2021/09/27 07:55:57;;;;;;;9.30;8.40;;;17.10;99.90;;;;;;6087313;23;20594;-79
2021/09/27 07:58:42;;;;;;;8.93;8.13;;;17.20;99.90;;;;;;6081934;23;20633;-80
2021/09/27 08:01:28;;;;;;;8.53;7.73;;;17.40;99.90;;;;;;6090009;23;20562;-81
2021/09/27 08:04:06;;;;;;;8.80;7.90;;;17.60;99.90;;;;;;6089493;23;20570;-80
2021/09/27 08:06:44;;;;;;;8.27;7.50;;;17.50;99.90;;;;;;6089043;23;20631;-81
2021/09/27 08:09:19;;;;;;;10.00;7.80;;;17.60;99.90;;;;;;6089231;23;21154;-80
2021/09/27 08:12:07;;;;;;;8.50;7.70;;;17.70;99.90;;;;;;6089330;23;21270;-81
2021/09/27 08:14:50;;;;;;;9.63;7.90;;;17.80;99.90;;;;;;6089075;23;21160;-80
2021/09/27 08:17:41;;;;;;;7.43;6.73;;;17.80;99.90;;;;;;6081015;23;20645;-80
2021/09/27 08:20:21;;;;;;;9.67;8.67;;;17.90;99.90;;;;;;6089507;23;20565;-80
2021/09/27 08:23:03;;;;;;;8.60;6.70;;;17.90;99.90;;;;;;6088368;22;20628;-80
2021/09/27 08:25:42;;;;;;;9.03;7.30;;;18.10;99.90;;;;;;6089304;22;20656;-80
2021/09/27 08:28:28;;;;;;;7.20;6.50;;;18.20;99.90;;;;;;6088149;23;20574;-80
2021/09/27 08:31:10;;;;;;;6.93;6.23;;;18.20;99.90;;;;;;6089695;23;20594;-80
2021/09/27 08:34:12;;;;;;;8.10;6.67;;;18.30;99.90;;;;;;6080597;23;20637;-80
2021/09/27 08:36:48;;;;;;;7.33;6.63;;;18.50;99.90;;;;;;6086718;23;20539;-79
2021/09/27 08:39:27;;;;;;;6.73;6.03;;;18.60;99.90;;;;;;6082469;23;20660;-77
2021/09/27 08:42:18;;;;;;;6.20;5.63;;;18.80;99.90;;;;;;6089109;23;20609;-78
2021/09/27 08:44:52;;;;;;;6.50;5.50;;;18.90;99.90;;;;;;6088830;23;21122;-79
2021/09/27 08:47:42;;;;;;;6.13;5.63;;;18.90;99.90;;;;;;6082154;23;20915;-79
2021/09/27 08:50:28;;;;;;;6.47;5.87;;;18.90;99.90;;;;;;6087821;23;20612;-79
2021/09/27 08:53:06;;;;;;;5.90;5.40;;;18.90;99.90;;;;;;6088773;23;20952;-77
2021/09/27 08:56:08;;;;;;;5.00;4.50;;;18.90;99.90;;;;;;6087873;23;20606;-78
2021/09/27 08:58:48;;;;;;;5.80;4.90;;;18.90;99.50;;;;;;6089261;23;21140;-78
2021/09/27 09:01:42;;;;;;;5.20;4.70;;;19.10;99.80;;;;;;6088503;23;20677;-78
2021/09/27 09:04:31;;;;;;;5.40;4.90;;;19.00;99.90;;;;;;6089743;23;20563;-79
2021/09/27 09:07:09;;;;;;;5.43;5.03;;;18.90;99.90;;;;;;6083280;23;20916;-80
2021/09/27 09:09:44;;;;;;;5.67;5.03;;;19.10;99.90;;;;;;6088200;23;20645;-79
2021/09/27 09:12:35;;;;;;;5.57;4.93;;;19.10;99.80;;;;;;6087493;23;21260;-80
2021/09/27 09:15:25;;;;;;;4.93;4.20;;;19.00;99.30;;;;;;6088765;23;20591;-79
2021/09/27 09:18:10;;;;;;;5.00;4.60;;;19.10;99.30;;;;;;6090096;23;20571;-79
2021/09/27 09:20:59;;;;;;;4.70;4.23;;;19.10;98.60;;;;;;6088689;23;20590;-80
2021/09/27 09:23:42;;;;;;;4.20;3.90;;;19.20;98.80;;;;;;6084678;23;21021;-79
2021/09/27 09:26:30;;;;;;;4.37;4.00;;;19.30;98.30;;;;;;6085610;23;20531;-79
2021/09/27 09:29:10;;;;;;;4.20;3.80;;;19.50;98.40;;;;;;6089584;23;21131;-80
2021/09/27 09:32:00;;;;;;;3.50;3.30;;;19.60;98.20;;;;;;6089640;23;20654;-79
2021/09/27 09:34:39;;;;;;;4.17;3.83;;;19.70;97.40;;;;;;6090228;23;20586;-80
2021/09/27 09:37:36;;;;;;;4.80;4.50;;;19.80;96.80;;;;;;6083757;23;20672;-80
2021/09/27 09:40:18;;;;;;;5.03;4.63;;;20.00;97.60;;;;;;6090158;23;20587;-79
2021/09/27 09:43:01;;;;;;;4.43;4.00;;;20.20;96.90;;;;;;6090211;23;20592;-80
2021/09/27 09:45:48;;;;;;;5.10;4.63;;;20.30;97.10;;;;;;6090181;23;20596;-78
2021/09/27 09:48:29;;;;;;;5.53;4.23;;;20.70;96.40;;;;;;6089970;23;20696;-78
2021/09/27 09:51:27;;;;;;;4.63;4.23;;;20.70;95.30;;;;;;6090255;23;20624;-78
2021/09/27 09:54:12;;;;;;;6.70;4.80;;;20.40;95.90;;;;;;6088787;23;20628;-78
2021/09/27 09:57:04;;;;;;;4.53;4.13;;;20.40;96.60;;;;;;6087683;23;20644;-78
2021/09/27 09:59:57;;;;;;;5.37;4.80;;;20.40;96.00;;;;;;6089558;23;20600;-78
2021/09/27 10:02:35;;;;;;;4.80;4.40;;;20.60;96.20;;;;;;6089950;22;20974;-78
2021/09/27 10:05:27;;;;;;;5.00;4.50;;;20.90;95.10;;;;;;6090076;23;20560;-78
2021/09/27 10:08:18;;;;;;;4.30;4.00;;;21.20;94.80;;;;;;6087719;23;20601;-78
2021/09/27 10:11:06;;;;;;;5.10;4.40;;;21.40;94.50;;;;;;6090788;23;20572;-78
2021/09/27 10:13:52;;;;;;;4.80;4.33;;;21.40;94.50;;;;;;6090605;23;20671;-78
2021/09/27 10:16:41;;;;;;;7.20;4.30;;;21.40;94.50;;;;;;6089720;23;20563;-79
2021/09/27 10:19:28;;;;;;;4.20;3.90;;;21.20;93.70;;;;;;6087839;23;21088;-78
2021/09/27 10:22:07;;;;;;;3.83;3.30;;;21.10;93.10;;;;;;6089367;23;21110;-80
2021/09/27 10:24:57;;;;;;;5.57;4.00;;;21.40;93.70;;;;;;6087296;23;21167;-78
2021/09/27 10:27:37;;;;;;;3.57;3.27;;;21.80;93.10;;;;;;6090222;23;20568;-80
2021/09/27 10:30:24;;;;;;;3.40;3.07;;;21.70;92.70;;;;;;6089529;23;20597;-79
2021/09/27 10:33:16;;;;;;;4.50;4.10;;;21.50;92.90;;;;;;6089799;23;20592;-79
2021/09/27 10:35:59;;;;;;;3.60;3.30;;;21.50;92.90;;;;;;6089986;23;20572;-79
2021/09/27 10:38:49;;;;;;;3.60;3.23;;;21.70;92.90;;;;;;6087543;23;20680;-79
2021/09/27 10:41:29;;;;;;;4.20;3.90;;;21.90;91.70;;;;;;6089406;23;20584;-79
2021/09/27 10:44:09;;;;;;;6.13;4.40;;;21.90;92.20;;;;;;6088955;23;20584;-79
2021/09/27 10:46:54;;;;;;;3.87;3.57;;;22.20;91.20;;;;;;6086536;23;21038;-80
2021/09/27 10:49:44;;;;;;;3.40;3.10;;;22.10;92.10;;;;;;6087179;23;20613;-79
2021/09/27 10:52:35;;;;;;;3.63;3.33;;;22.20;91.80;;;;;;6085258;23;20596;-79
2021/09/27 10:55:17;;;;;;;3.90;3.60;;;22.30;90.70;;;;;;6087113;23;20564;-79
2021/09/27 10:57:56;;;;;;;4.20;3.80;;;22.10;90.90;;;;;;6088752;23;20640;-79
2021/09/27 11:00:48;;;;;;;3.63;3.33;;;21.90;91.60;;;;;;6086950;23;20617;-79
2021/09/27 11:03:31;;;;;;;3.50;3.20;;;21.70;89.90;;;;;;6085803;23;20585;-79
2021/09/27 11:06:29;;;;;;;3.00;2.50;;;21.60;90.10;;;;;;6087288;23;20624;-79
2021/09/27 11:09:17;;;;;;;2.53;2.43;;;21.40;90.30;;;;;;6088895;23;20893;-79
2021/09/27 11:12:06;;;;;;;3.07;2.77;;;21.30;89.90;;;;;;6087980;23;20559;-79
2021/09/27 11:14:52;;;;;;;2.47;2.37;;;21.40;90.00;;;;;;6086204;23;20616;-80
2021/09/27 11:17:47;;;;;;;3.10;2.90;;;21.60;91.00;;;;;;6088892;23;20538;-80
2021/09/27 11:20:59;;;;;;;2.87;2.60;;;21.60;89.80;;;;;;6090057;23;20596;-80
2021/09/27 11:23:43;;;;;;;2.97;2.77;;;21.80;90.10;;;;;;6089327;23;20588;-80
2021/09/27 11:26:41;;;;;;;4.10;2.60;;;21.80;89.70;;;;;;6089955;23;21156;-81
2021/09/27 11:29:47;;;;;;;3.50;2.73;;;21.90;89.70;;;;;;6089242;23;21184;-81
2021/09/27 11:32:47;;;;;;;3.33;3.00;;;22.40;88.20;;;;;;6090546;22;20595;-80
2021/09/27 11:35:39;;;;;;;3.03;2.73;;;22.30;85.80;;;;;;6089742;23;20597;-81
2021/09/27 11:38:36;;;;;;;40.20;9.53;;;22.00;87.30;;;;;;6083692;23;20617;-80
2021/09/27 11:41:32;;;;;;;74.87;18.87;;;22.10;87.60;;;;;;6089747;22;20592;-80
2021/09/27 11:44:24;;;;;;;13.80;5.10;;;22.30;87.70;;;;;;6089417;23;20545;-79
2021/09/27 11:47:14;;;;;;;3.97;3.17;;;22.20;86.80;;;;;;6089841;23;20614;-80
2021/09/27 11:50:05;;;;;;;91.70;18.77;;;22.10;84.10;;;;;;6089689;23;20628;-79
2021/09/27 11:52:49;;;;;;;20.33;6.77;;;22.20;85.90;;;;;;6090097;23;20611;-79
2021/09/27 11:55:29;;;;;;;215.93;28.60;;;22.50;86.00;;;;;;6089829;23;20539;-79
2021/09/27 11:58:17;;;;;;;84.07;15.90;;;22.50;84.90;;;;;;6089595;23;20586;-80
2021/09/27 12:01:04;;;;;;;6.43;3.20;;;22.60;83.80;;;;;;6090015;23;20577;-79
2021/09/27 12:03:55;;;;;;;2.30;2.20;;;22.60;84.80;;;;;;6089450;23;20593;-81
2021/09/27 12:06:39;;;;;;;2.53;2.40;;;22.20;84.50;;;;;;6089466;23;20927;-80
2021/09/27 12:09:34;;;;;;;6.60;3.97;;;22.00;85.10;;;;;;6089874;23;20583;-81
2021/09/27 12:12:29;;;;;;;8.67;4.37;;;22.00;85.40;;;;;;6087927;23;21303;-81
2021/09/27 12:15:21;;;;;;;2.80;2.60;;;22.00;86.20;;;;;;6087479;23;20602;-81
2021/09/27 12:18:02;;;;;;;2.63;2.43;;;22.50;83.80;;;;;;6089172;23;20555;-81
2021/09/27 12:20:41;;;;;;;2.83;2.57;;;22.50;85.50;;;;;;6090029;23;20634;-81
2021/09/27 12:23:29;;;;;;;2.57;2.37;;;22.60;85.20;;;;;;6089112;23;20555;-81
2021/09/27 12:26:22;;;;;;;3.20;2.80;;;22.30;86.80;;;;;;6089414;23;20943;-80
2021/09/27 12:29:03;;;;;;;3.10;2.90;;;22.50;87.10;;;;;;6089146;23;20621;-80
2021/09/27 12:31:48;;;;;;;2.90;2.73;;;22.60;84.80;;;;;;6088480;23;20590;-80
2021/09/27 12:34:33;;;;;;;4.47;2.90;;;22.60;86.10;;;;;;6089006;23;20626;-80
2021/09/27 12:37:12;;;;;;;5.33;2.70;;;22.80;86.90;;;;;;6088902;23;20674;-80
2021/09/27 12:39:49;;;;;;;3.13;2.80;;;22.70;87.20;;;;;;6089298;23;20654;-80
2021/09/27 12:42:30;;;;;;;4.20;2.97;;;22.80;86.40;;;;;;6089460;23;20586;-80
2021/09/27 12:45:22;;;;;;;3.17;2.87;;;22.80;87.00;;;;;;6088072;23;20653;-80
2021/09/27 12:47:58;;;;;;;3.20;3.00;;;22.90;87.80;;;;;;6089044;23;20581;-80
2021/09/27 12:50:45;;;;;;;3.00;2.80;;;22.80;86.40;;;;;;6085205;23;20653;-80
2021/09/27 12:53:38;;;;;;;2.97;2.67;;;22.70;85.60;;;;;;6087341;23;20614;-80
2021/09/27 12:56:15;;;;;;;4.73;2.50;;;22.70;86.60;;;;;;6089164;22;20985;-80
2021/09/27 12:59:05;;;;;;;3.23;2.93;;;22.60;88.10;;;;;;6088500;23;21151;-80
2021/09/27 13:01:57;;;;;;;5.10;3.13;;;22.60;88.20;;;;;;6089636;23;21064;-80
2021/09/27 13:04:45;;;;;;;3.20;3.00;;;22.50;88.60;;;;;;6089462;23;20585;-80
2021/09/27 13:07:23;;;;;;;3.13;2.93;;;22.70;85.70;;;;;;6086439;23;20615;-80
2021/09/27 13:10:05;;;;;;;3.43;3.13;;;22.70;90.30;;;;;;6088836;23;20626;-81
2021/09/27 13:13:01;;;;;;;3.20;2.70;;;22.60;87.40;;;;;;6089342;23;21130;-80
2021/09/27 13:15:36;;;;;;;3.13;2.83;;;22.60;85.90;;;;;;6089199;23;20555;-80
2021/09/27 13:18:25;;;;;;;4.27;3.40;;;22.50;84.70;;;;;;6082614;23;20676;-81
2021/09/27 13:21:07;;;;;;;3.50;2.37;;;22.40;87.10;;;;;;6089089;23;20537;-80
2021/09/27 13:23:41;;;;;;;7.53;2.40;;;22.30;84.20;;;;;;6089197;23;20579;-81
2021/09/27 13:26:33;;;;;;;5.03;2.63;;;22.30;86.70;;;;;;6088674;23;21205;-79
2021/09/27 13:29:30;;;;;;;4.83;2.47;;;21.80;85.90;;;;;;6087865;23;21123;-81
2021/09/27 13:32:32;;;;;;;2.90;2.70;;;21.90;88.70;;;;;;6087241;23;21119;-79
2021/09/27 13:35:18;;;;;;;2.67;2.47;;;22.00;88.30;;;;;;6088565;22;20614;-79
2021/09/27 13:38:34;;;;;;;2.30;2.10;;;21.90;89.20;;;;;;6088718;23;20701;-80
2021/09/27 13:41:21;;;;;;;2.57;2.37;;;22.20;86.10;;;;;;6077282;23;20973;-81
2021/09/27 13:44:01;;;;;;;3.30;2.57;;;22.10;87.50;;;;;;6088814;23;20596;-81
2021/09/27 13:46:37;;;;;;;4.07;3.50;;;22.00;87.40;;;;;;6088847;23;20562;-79
2021/09/27 13:49:17;;;;;;;3.00;2.80;;;21.90;87.40;;;;;;6088455;23;20643;-81
2021/09/27 13:51:49;;;;;;;4.00;3.10;;;21.70;88.70;;;;;;6089528;23;20582;-81
2021/09/27 13:54:20;;;;;;;4.97;3.77;;;21.60;89.40;;;;;;6088688;23;20613;-81
2021/09/27 13:56:56;;;;;;;3.27;2.97;;;21.50;90.00;;;;;;6089050;23;20563;-80
2021/09/27 13:59:25;;;;;;;3.67;3.37;;;21.50;90.50;;;;;;6090172;23;20590;-80
2021/09/27 14:01:57;;;;;;;3.13;2.93;;;21.30;89.30;;;;;;6083898;23;20607;-81
2021/09/27 14:04:42;;;;;;;3.93;3.40;;;21.30;90.80;;;;;;6090219;23;21182;-80
2021/09/27 14:07:21;;;;;;;3.47;3.17;;;21.30;91.40;;;;;;6089996;23;20647;-79
2021/09/27 14:09:54;;;;;;;5.50;3.53;;;21.20;91.50;;;;;;6089306;23;20981;-79
2021/09/27 14:12:33;;;;;;;2.97;2.77;;;21.30;92.00;;;;;;6089184;23;20640;-79
2021/09/27 14:15:15;;;;;;;3.33;3.00;;;21.30;91.20;;;;;;6089958;23;20612;-79
2021/09/27 14:17:59;;;;;;;4.23;2.73;;;21.40;91.70;;;;;;6090153;23;20557;-79
2021/09/27 14:20:31;;;;;;;3.60;2.97;;;21.50;91.60;;;;;;6090190;23;20862;-79
2021/09/27 14:23:05;;;;;;;3.23;3.03;;;21.20;91.00;;;;;;6083360;23;20673;-78